Manta, Ecuador

7:00 PM ECT on October 24, 2014 (GMT -0500)
Eloy Alfaro International | Change Station
CLOSE
Current Station
Airport
Location: Manta,
Elevation: 46 ft
Nearby Weather Stations

Elev 46 ft 0.95 °S, 80.68 °W | Updated 1 hour ago

Mostly Cloudy
Mostly Cloudy
75 °F
Feels Like 75 °F
N
17
Wind Variable Wind from SSW

Today
High -- | Low -- °F
--% Chance of Precip.
Yesterday
High -- | Low -- °F
Precip. -- in
6:02 AM 6:11 PM
New Moon, 1% visible
Pressure 29.86 in
Visibility 6.2 miles
Clouds Mostly Cloudy 2000 ft
Dew Point 70 °F
Humidity 83%
Rainfall 0.00 in
Snow Depth Not available.
UV 0 out of 12
Pollen Not available.
Air Quality Not available.
Flu Activity Not available.
METAR SEMT 242300Z 20015KT 9999 BKN020 24/21 Q1011

More Conditions Fewer Conditions

Pressure 29.86 in
Visibility 6.2 miles
Clouds Mostly Cloudy 2000 ft
Dew Point 70 °F
Humidity 83%
Rainfall 0.00 in
Snow Depth Not available.
UV 0 out of 12
Pollen Not available.
Air Quality Not available.
Flu Activity Not available.
METAR SEMT 242300Z 20015KT 9999 BKN020 24/21 Q1011

More Conditions Fewer Conditions

10-Day Weather Forecast

Almanac

Astronomy

Oct. 24, 2014 Rise Set
Actual Time 6:02 AM ECT 6:11 PM ECT
Civil Twilight 5:41 AM ECT 6:32 PM ECT
Nautical Twilight 5:17 AM ECT 6:56 PM ECT
Astronomical Twilight 4:52 AM ECT 7:21 PM ECT
Moon 6:34 AM ECT (10/24) 7:00 PM ECT (10/24)
Length of Visible Light 12h 50m
Length of Day
12h 08m
Tomorrow will be 0m 4s longer.
New Moon, 1% of the Moon is Illuminated
Today
New Moon
Oct 30
First Quarter
Nov 6
Full
Nov 14
Last Quarter
Nov 22
New

Today's Extremes

Country Highs Country Lows

Community

WunderPhotos

Upload Photos

1,764,721 photos uploaded!

Nearby

Snow Depth

Not available.

Earthquake Activity

City Distance Mag. Time & Date
No recent earthquake activity has been reported nearby.
Minimum magnitude displayed is 2.5.

Coastal Water Temperatures

Place Temperature
No Stations Reporting

Nearby Weather Stations